Time;durP1;ratioP1;P1;durP2;ratioP2;P2;SDS_P1;SDS_P2;PMS_P1;PMS_P2;Temp;Humidity;BMP_temperature;BMP_pressure;BME280_temperature;BME280_humidity;BME280_pressure;Samples;Min_cycle;Max_cycle;Signal;HPM_P1;HPM_P2
2021/08/25 00:00:17;;;;;;;27.50;25.73;;;;;;;;;;4992932;28;20471;-70
2021/08/25 00:02:44;;;;;;;26.43;24.93;;;;;;;;;;4993294;28;20462;-70
2021/08/25 00:05:13;;;;;;;27.20;25.60;;;;;;;;;;4982134;28;20459;-68
2021/08/25 00:07:40;;;;;;;27.30;25.70;;;;;;;;;;4994317;28;20460;-70
2021/08/25 00:10:08;;;;;;;26.37;24.77;;;;;;;;;;4993627;28;20490;-70
2021/08/25 00:12:35;;;;;;;26.20;24.63;;;;;;;;;;4992301;28;20462;-70
2021/08/25 00:15:02;;;;;;;26.53;24.93;;;;;;;;;;4995260;28;20459;-67
2021/08/25 00:17:29;;;;;;;26.50;25.00;;;;;;;;;;4981862;28;20465;-68
2021/08/25 00:19:56;;;;;;;26.03;24.53;;;;;;;;;;4993729;28;20480;-67
2021/08/25 00:22:25;;;;;;;26.00;24.40;;;;;;;;;;4982927;28;20459;-68
2021/08/25 00:24:53;;;;;;;27.70;25.83;;;;;;;;;;4975414;28;20448;-68
2021/08/25 00:27:20;;;;;;;27.13;25.53;;;;;;;;;;4985893;28;20486;-67
2021/08/25 00:29:47;;;;;;;26.57;25.17;;;;;;;;;;4994557;28;20828;-67
2021/08/25 00:32:14;;;;;;;25.60;24.00;;;;;;;;;;4978170;28;20943;-70
2021/08/25 00:34:41;;;;;;;26.67;25.03;;;;;;;;;;4985661;28;20453;-68
2021/08/25 00:37:08;;;;;;;26.03;24.43;;;;;;;;;;4994405;28;20451;-68
2021/08/25 00:39:37;;;;;;;25.90;24.10;;;;;;;;;;4978506;28;20471;-68
2021/08/25 00:42:04;;;;;;;26.20;24.60;;;;;;;;;;4988968;28;20469;-69
2021/08/25 00:44:31;;;;;;;25.40;23.90;;;;;;;;;;4994664;28;20506;-68
2021/08/25 00:46:58;;;;;;;25.70;24.10;;;;;;;;;;4992050;28;20490;-68
2021/08/25 00:49:25;;;;;;;25.27;23.87;;;;;;;;;;4993995;28;20454;-68
2021/08/25 00:51:52;;;;;;;25.80;24.20;;;;;;;;;;4979077;28;20824;-68
2021/08/25 00:54:20;;;;;;;25.90;24.40;;;;;;;;;;4979495;28;20557;-70
2021/08/25 00:56:49;;;;;;;26.43;24.60;;;;;;;;;;4990405;28;20985;-68
2021/08/25 00:59:18;;;;;;;26.37;24.87;;;;;;;;;;4986578;28;20458;-68
2021/08/25 01:01:52;;;;;;;26.57;24.80;;;;;;;;;;4975674;28;20463;-67
2021/08/25 01:04:23;;;;;;;26.20;24.70;;;;;;;;;;4975189;28;20454;-68
2021/08/25 01:06:50;;;;;;;26.83;25.33;;;;;;;;;;4983040;28;20485;-71
2021/08/25 01:09:17;;;;;;;26.80;25.10;;;;;;;;;;4985524;28;20462;-69
2021/08/25 01:11:47;;;;;;;25.90;24.40;;;;;;;;;;4974794;28;20814;-70
2021/08/25 01:14:15;;;;;;;26.50;25.00;;;;;;;;;;4982209;28;20486;-71
2021/08/25 01:16:42;;;;;;;24.80;23.40;;;;;;;;;;4993986;28;20458;-69
2021/08/25 01:19:14;;;;;;;26.57;24.97;;;;;;;;;;4987600;28;20448;-67
2021/08/25 01:21:41;;;;;;;26.10;24.50;;;;;;;;;;4974523;28;20474;-68
2021/08/25 01:24:08;;;;;;;26.63;25.03;;;;;;;;;;4979078;28;20452;-70
2021/08/25 01:26:35;;;;;;;27.10;25.50;;;;;;;;;;4974586;28;20490;-69
2021/08/25 01:29:03;;;;;;;26.40;24.90;;;;;;;;;;4978637;28;20452;-66
2021/08/25 01:31:32;;;;;;;26.40;24.70;;;;;;;;;;4993555;28;20485;-69
2021/08/25 01:34:06;;;;;;;25.43;24.03;;;;;;;;;;4990543;28;20455;-68
2021/08/25 01:36:33;;;;;;;26.53;25.13;;;;;;;;;;4974687;28;20434;-67
2021/08/25 01:39:00;;;;;;;27.00;25.30;;;;;;;;;;4977383;28;20819;-69
2021/08/25 01:41:28;;;;;;;25.00;23.50;;;;;;;;;;4984653;28;20470;-68
2021/08/25 01:43:55;;;;;;;26.23;24.73;;;;;;;;;;4975041;28;20453;-67
2021/08/25 01:46:23;;;;;;;26.40;24.90;;;;;;;;;;4974576;28;20508;-69
2021/08/25 01:48:52;;;;;;;26.80;25.10;;;;;;;;;;4975068;28;20447;-67
2021/08/25 01:51:19;;;;;;;25.93;24.33;;;;;;;;;;4993785;28;20482;-70
2021/08/25 01:53:46;;;;;;;26.03;24.60;;;;;;;;;;4993752;28;20457;-69
2021/08/25 01:56:13;;;;;;;25.90;24.33;;;;;;;;;;4993382;28;20457;-70
2021/08/25 01:58:41;;;;;;;24.87;23.47;;;;;;;;;;4994541;28;20448;-70
2021/08/25 02:01:08;;;;;;;26.40;24.80;;;;;;;;;;4975511;28;20481;-72
2021/08/25 02:03:35;;;;;;;26.20;24.70;;;;;;;;;;4975356;28;20458;-71
2021/08/25 02:06:04;;;;;;;25.63;24.13;;;;;;;;;;4978263;28;20492;-71
2021/08/25 02:08:31;;;;;;;26.00;24.30;;;;;;;;;;4982371;28;20470;-70
2021/08/25 02:10:58;;;;;;;27.13;25.40;;;;;;;;;;4977213;28;20510;-68
2021/08/25 02:13:25;;;;;;;25.80;24.30;;;;;;;;;;5004540;28;20525;-70
2021/08/25 02:15:53;;;;;;;25.83;24.33;;;;;;;;;;4990610;28;20459;-71
2021/08/25 02:18:20;;;;;;;25.63;24.13;;;;;;;;;;4992690;28;20456;-68
2021/08/25 02:20:47;;;;;;;25.90;24.20;;;;;;;;;;4976231;28;20477;-72
2021/08/25 02:23:15;;;;;;;25.93;24.33;;;;;;;;;;4992880;28;20933;-72
2021/08/25 02:25:42;;;;;;;26.13;24.63;;;;;;;;;;4992014;28;20970;-71
2021/08/25 02:28:10;;;;;;;27.43;25.70;;;;;;;;;;4993379;28;20459;-71
2021/08/25 02:30:37;;;;;;;26.03;24.43;;;;;;;;;;4992107;28;20474;-72
2021/08/25 02:33:04;;;;;;;26.20;24.53;;;;;;;;;;4994173;28;20446;-72
2021/08/25 02:35:32;;;;;;;25.50;23.90;;;;;;;;;;4979039;28;20455;-72
2021/08/25 02:37:59;;;;;;;26.20;24.70;;;;;;;;;;4993332;28;20497;-72
2021/08/25 02:40:28;;;;;;;25.93;24.43;;;;;;;;;;4993045;28;20976;-72
2021/08/25 02:42:55;;;;;;;25.87;24.17;;;;;;;;;;4997428;28;20460;-70
2021/08/25 02:45:22;;;;;;;26.37;24.87;;;;;;;;;;4984082;28;20456;-72
2021/08/25 02:47:49;;;;;;;24.90;23.40;;;;;;;;;;4977557;28;20489;-72
2021/08/25 02:50:16;;;;;;;26.50;24.87;;;;;;;;;;4978444;28;20481;-72
2021/08/25 02:52:43;;;;;;;24.27;22.77;;;;;;;;;;4981797;28;20458;-71
2021/08/25 02:55:11;;;;;;;27.47;25.37;;;;;;;;;;4986149;28;20463;-72
2021/08/25 02:57:40;;;;;;;25.87;24.17;;;;;;;;;;4978457;28;20531;-72
2021/08/25 03:00:08;;;;;;;26.10;24.60;;;;;;;;;;4978475;28;20494;-68
2021/08/25 03:02:35;;;;;;;25.63;23.93;;;;;;;;;;4978787;28;20447;-68
2021/08/25 03:05:02;;;;;;;25.50;24.00;;;;;;;;;;4979316;28;20458;-68
2021/08/25 03:07:29;;;;;;;26.70;24.83;;;;;;;;;;4977725;28;20891;-69
2021/08/25 03:09:56;;;;;;;26.97;25.17;;;;;;;;;;4991861;28;20502;-68
2021/08/25 03:12:23;;;;;;;27.13;25.37;;;;;;;;;;5005344;28;20449;-69
2021/08/25 03:14:52;;;;;;;27.00;25.00;;;;;;;;;;4995906;28;20447;-68
2021/08/25 03:17:19;;;;;;;27.20;25.20;;;;;;;;;;4989895;28;20455;-71
2021/08/25 03:19:46;;;;;;;28.20;25.67;;;;;;;;;;4993441;28;20470;-71
2021/08/25 03:22:13;;;;;;;25.50;23.60;;;;;;;;;;5003295;28;20454;-72
2021/08/25 03:24:40;;;;;;;25.80;24.30;;;;;;;;;;4997173;28;20457;-71
2021/08/25 03:27:07;;;;;;;39.40;25.50;;;;;;;;;;4996892;28;21174;-70
2021/08/25 03:29:34;;;;;;;25.27;23.70;;;;;;;;;;4991712;28;20471;-71
2021/08/25 03:32:03;;;;;;;24.60;22.90;;;;;;;;;;4977585;28;20451;-69
2021/08/25 03:34:30;;;;;;;25.07;23.63;;;;;;;;;;4977734;28;20452;-71
2021/08/25 03:36:57;;;;;;;25.57;23.73;;;;;;;;;;4977900;28;20498;-72
2021/08/25 03:39:24;;;;;;;25.27;23.77;;;;;;;;;;4981648;28;20453;-71
2021/08/25 03:41:51;;;;;;;24.87;23.40;;;;;;;;;;4996982;28;20454;-71
2021/08/25 03:44:19;;;;;;;25.10;23.50;;;;;;;;;;4997915;28;20961;-71
2021/08/25 03:46:46;;;;;;;24.60;23.17;;;;;;;;;;4983570;28;20487;-70
2021/08/25 03:49:14;;;;;;;24.33;22.83;;;;;;;;;;4983568;28;20790;-72
2021/08/25 03:51:41;;;;;;;25.00;23.50;;;;;;;;;;4984078;28;20457;-68
2021/08/25 03:54:09;;;;;;;23.67;22.27;;;;;;;;;;4984740;28;20453;-70
2021/08/25 03:56:36;;;;;;;24.50;22.90;;;;;;;;;;4994475;28;20511;-67
2021/08/25 03:59:03;;;;;;;24.90;23.30;;;;;;;;;;4984089;28;20448;-68
2021/08/25 04:01:30;;;;;;;24.50;23.10;;;;;;;;;;4983698;28;20474;-68
2021/08/25 04:03:58;;;;;;;24.40;22.83;;;;;;;;;;4995880;28;20458;-67
2021/08/25 04:06:26;;;;;;;25.23;23.80;;;;;;;;;;4996132;28;20482;-69
2021/08/25 04:08:53;;;;;;;25.77;24.23;;;;;;;;;;4996596;28;20451;-68
2021/08/25 04:11:20;;;;;;;25.40;23.70;;;;;;;;;;4995343;28;20860;-68
2021/08/25 04:13:48;;;;;;;24.57;23.27;;;;;;;;;;4977872;28;20455;-68
2021/08/25 04:16:15;;;;;;;25.27;23.67;;;;;;;;;;4996657;28;20457;-69
2021/08/25 04:18:42;;;;;;;25.10;23.60;;;;;;;;;;4996222;28;20524;-68
2021/08/25 04:21:09;;;;;;;25.47;23.87;;;;;;;;;;4981202;28;20471;-67
2021/08/25 04:23:38;;;;;;;24.37;22.97;;;;;;;;;;4989480;28;20811;-67
2021/08/25 04:26:05;;;;;;;24.53;22.93;;;;;;;;;;4995686;28;20841;-69
2021/08/25 04:28:32;;;;;;;23.83;22.53;;;;;;;;;;4996442;28;20864;-71
2021/08/25 04:30:59;;;;;;;24.33;22.93;;;;;;;;;;4979261;28;20475;-70
2021/08/25 04:33:26;;;;;;;25.10;23.70;;;;;;;;;;4984439;28;20446;-71
2021/08/25 04:35:53;;;;;;;24.60;23.10;;;;;;;;;;4994950;28;20461;-70
2021/08/25 04:38:20;;;;;;;24.30;22.90;;;;;;;;;;4995473;28;20545;-71
2021/08/25 04:40:49;;;;;;;23.90;22.60;;;;;;;;;;4980499;28;21016;-70
2021/08/25 04:43:16;;;;;;;25.30;23.80;;;;;;;;;;4975870;28;20466;-70
2021/08/25 04:45:43;;;;;;;24.53;23.03;;;;;;;;;;4989038;28;20845;-72
2021/08/25 04:48:10;;;;;;;24.93;23.23;;;;;;;;;;4995080;28;20482;-72
2021/08/25 04:50:37;;;;;;;25.90;24.10;;;;;;;;;;4993496;28;20474;-72
2021/08/25 04:53:07;;;;;;;25.53;24.03;;;;;;;;;;4994510;28;20457;-72
2021/08/25 04:55:34;;;;;;;25.63;24.13;;;;;;;;;;4994826;28;20589;-70
2021/08/25 04:58:03;;;;;;;24.63;23.13;;;;;;;;;;4995168;28;20457;-69
2021/08/25 05:00:30;;;;;;;26.43;24.93;;;;;;;;;;4985210;28;20475;-71
2021/08/25 05:02:57;;;;;;;26.50;24.80;;;;;;;;;;4975371;28;20455;-72
2021/08/25 05:05:25;;;;;;;24.90;23.50;;;;;;;;;;4975332;28;20555;-72
2021/08/25 05:07:52;;;;;;;25.20;23.70;;;;;;;;;;4975212;28;20513;-72
2021/08/25 05:10:19;;;;;;;25.73;24.33;;;;;;;;;;4992064;28;20549;-72
2021/08/25 05:12:46;;;;;;;36.70;34.47;;;;;;;;;;4983926;28;20835;-72
2021/08/25 05:15:15;;;;;;;24.90;23.30;;;;;;;;;;4987935;28;20461;-72
2021/08/25 05:17:42;;;;;;;26.27;24.70;;;;;;;;;;4995032;28;20824;-72
2021/08/25 05:20:12;;;;;;;24.93;23.43;;;;;;;;;;4999028;28;20480;-72
2021/08/25 05:22:39;;;;;;;23.50;22.17;;;;;;;;;;5006534;28;20540;-72
2021/08/25 05:25:07;;;;;;;26.10;24.40;;;;;;;;;;4994528;28;20465;-71
2021/08/25 05:27:34;;;;;;;25.40;23.90;;;;;;;;;;4974726;28;20514;-71
2021/08/25 05:30:01;;;;;;;25.60;24.10;;;;;;;;;;4983051;28;20479;-71
2021/08/25 05:32:30;;;;;;;25.90;24.40;;;;;;;;;;4994628;28;20454;-70
2021/08/25 05:34:57;;;;;;;27.37;25.30;;;;;;;;;;4977053;28;20451;-72
2021/08/25 05:37:24;;;;;;;25.30;23.80;;;;;;;;;;4975572;28;20455;-72
2021/08/25 05:39:51;;;;;;;25.13;23.43;;;;;;;;;;4974692;28;20483;-71
2021/08/25 05:42:18;;;;;;;26.83;25.20;;;;;;;;;;4977482;28;20559;-69
2021/08/25 05:44:45;;;;;;;26.70;25.10;;;;;;;;;;4979022;28;20472;-71
2021/08/25 05:47:12;;;;;;;25.43;23.80;;;;;;;;;;4994502;28;20993;-72
2021/08/25 05:49:41;;;;;;;27.27;25.40;;;;;;;;;;4981134;28;21016;-71
2021/08/25 05:52:08;;;;;;;24.10;22.70;;;;;;;;;;4987466;28;20454;-67
2021/08/25 05:54:35;;;;;;;27.27;25.50;;;;;;;;;;4976138;28;20822;-66
2021/08/25 05:57:02;;;;;;;26.47;24.90;;;;;;;;;;4974664;28;20458;-67
2021/08/25 05:59:29;;;;;;;24.90;23.23;;;;;;;;;;4994973;28;20853;-67
2021/08/25 06:01:56;;;;;;;25.60;24.00;;;;;;;;;;4993192;28;20455;-67
2021/08/25 06:04:23;;;;;;;24.90;23.50;;;;;;;;;;4994458;28;20458;-67
2021/08/25 06:06:52;;;;;;;25.80;24.27;;;;;;;;;;4979902;28;20455;-68
2021/08/25 06:09:19;;;;;;;25.97;24.27;;;;;;;;;;4973455;28;20611;-67
2021/08/25 06:11:46;;;;;;;26.40;24.80;;;;;;;;;;4986652;28;20485;-68
2021/08/25 06:14:13;;;;;;;26.63;25.03;;;;;;;;;;4989364;28;20453;-68
2021/08/25 06:16:42;;;;;;;26.60;25.10;;;;;;;;;;4978989;28;20451;-67
2021/08/25 06:19:09;;;;;;;23.33;21.93;;;;;;;;;;4980194;28;20451;-68
2021/08/25 06:21:36;;;;;;;24.53;23.23;;;;;;;;;;4979354;28;20471;-67
2021/08/25 06:24:05;;;;;;;24.60;23.20;;;;;;;;;;4978907;28;20826;-66
2021/08/25 06:26:33;;;;;;;23.63;22.23;;;;;;;;;;4978434;28;20459;-68
2021/08/25 06:29:00;;;;;;;24.87;23.47;;;;;;;;;;4978924;28;20866;-66
2021/08/25 06:31:27;;;;;;;25.57;24.17;;;;;;;;;;4978108;28;20477;-67
2021/08/25 06:33:54;;;;;;;23.87;22.47;;;;;;;;;;4977945;28;20450;-65
2021/08/25 06:36:21;;;;;;;23.97;22.67;;;;;;;;;;4997154;28;20454;-67
2021/08/25 06:38:48;;;;;;;25.87;24.37;;;;;;;;;;4997722;28;20455;-66
2021/08/25 06:41:17;;;;;;;25.77;24.27;;;;;;;;;;4979172;28;20475;-69
2021/08/25 06:43:44;;;;;;;22.50;21.20;;;;;;;;;;4992287;28;20476;-70
2021/08/25 06:46:11;;;;;;;23.70;22.17;;;;;;;;;;4996477;28;20450;-70
2021/08/25 06:48:38;;;;;;;22.53;21.23;;;;;;;;;;4996561;28;21017;-68
2021/08/25 06:51:06;;;;;;;23.07;21.80;;;;;;;;;;4995765;28;20462;-67
2021/08/25 06:53:34;;;;;;;24.90;23.10;;;;;;;;;;4996846;28;20829;-70
2021/08/25 06:56:01;;;;;;;22.73;21.33;;;;;;;;;;4996309;28;20451;-68
2021/08/25 06:58:29;;;;;;;24.43;22.50;;;;;;;;;;4996839;28;20960;-68
2021/08/25 07:00:57;;;;;;;24.07;22.57;;;;;;;;;;4996750;28;20474;-68
2021/08/25 07:03:24;;;;;;;24.10;22.70;;;;;;;;;;4996666;28;20461;-68
2021/08/25 07:05:51;;;;;;;23.30;21.90;;;;;;;;;;4983076;28;20455;-67
2021/08/25 07:08:19;;;;;;;24.33;22.80;;;;;;;;;;4993252;28;20489;-68
2021/08/25 07:10:46;;;;;;;25.80;23.67;;;;;;;;;;4995193;28;20568;-66
2021/08/25 07:13:13;;;;;;;26.17;24.30;;;;;;;;;;4992234;28;20461;-66
2021/08/25 07:15:41;;;;;;;25.73;23.67;;;;;;;;;;4980094;28;20939;-67
2021/08/25 07:18:09;;;;;;;32.03;25.03;;;;;;;;;;4981981;28;20461;-67
2021/08/25 07:20:36;;;;;;;25.03;23.30;;;;;;;;;;4990763;28;20480;-67
2021/08/25 07:23:03;;;;;;;26.80;24.10;;;;;;;;;;4995847;28;20458;-70
2021/08/25 07:25:30;;;;;;;25.83;23.70;;;;;;;;;;4990573;28;20455;-69
2021/08/25 07:27:57;;;;;;;24.03;22.60;;;;;;;;;;4978069;28;20489;-69
2021/08/25 07:30:24;;;;;;;23.67;22.03;;;;;;;;;;4992067;28;20492;-68
2021/08/25 07:32:53;;;;;;;23.70;22.10;;;;;;;;;;4984562;28;20455;-68
2021/08/25 07:35:20;;;;;;;24.13;22.37;;;;;;;;;;4975874;28;20451;-67
2021/08/25 07:37:47;;;;;;;23.00;21.40;;;;;;;;;;4978565;28;20449;-67
2021/08/25 07:40:14;;;;;;;23.93;21.87;;;;;;;;;;4993198;28;20492;-67
2021/08/25 07:42:41;;;;;;;23.40;21.87;;;;;;;;;;4975669;28;20451;-64
2021/08/25 07:45:08;;;;;;;23.90;21.80;;;;;;;;;;4975739;28;20458;-64
2021/08/25 07:47:38;;;;;;;23.33;21.67;;;;;;;;;;4974846;28;20981;-64
2021/08/25 07:50:08;;;;;;;24.40;22.40;;;;;;;;;;4975162;28;20479;-64
2021/08/25 07:52:35;;;;;;;25.03;22.67;;;;;;;;;;4988178;28;20890;-64
2021/08/25 07:55:02;;;;;;;23.87;22.37;;;;;;;;;;4993699;28;20455;-65
2021/08/25 07:57:29;;;;;;;24.30;22.80;;;;;;;;;;4993911;28;20473;-65
2021/08/25 07:59:57;;;;;;;23.70;22.30;;;;;;;;;;4993332;28;20483;-64
2021/08/25 08:02:24;;;;;;;27.43;25.73;;;;;;;;;;4983641;28;20451;-64
2021/08/25 08:04:51;;;;;;;29.47;27.80;;;;;;;;;;4980032;28;20451;-64
2021/08/25 08:07:19;;;;;;;25.20;23.40;;;;;;;;;;4982478;28;20961;-65
2021/08/25 08:09:46;;;;;;;24.73;23.27;;;;;;;;;;4994025;28;20490;-63
2021/08/25 08:12:14;;;;;;;22.97;21.53;;;;;;;;;;4993350;28;20557;-64
2021/08/25 08:14:41;;;;;;;23.93;22.43;;;;;;;;;;4993216;28;20455;-68
2021/08/25 08:17:09;;;;;;;22.90;21.67;;;;;;;;;;4993515;28;20465;-68
2021/08/25 08:19:36;;;;;;;23.77;22.43;;;;;;;;;;4993740;28;20474;-67
2021/08/25 08:22:04;;;;;;;23.73;22.43;;;;;;;;;;4992575;28;20462;-68
2021/08/25 08:24:32;;;;;;;23.90;22.60;;;;;;;;;;4976762;28;20826;-68
2021/08/25 08:27:00;;;;;;;23.37;22.07;;;;;;;;;;4985251;28;20465;-69
2021/08/25 08:29:27;;;;;;;23.57;22.27;;;;;;;;;;4978651;28;20483;-68
2021/08/25 08:31:54;;;;;;;21.63;20.43;;;;;;;;;;4974338;28;20455;-69
2021/08/25 08:34:21;;;;;;;25.90;24.50;;;;;;;;;;4974768;28;20831;-69
2021/08/25 08:36:48;;;;;;;25.10;23.50;;;;;;;;;;4974730;28;20455;-69
2021/08/25 08:39:15;;;;;;;24.20;22.90;;;;;;;;;;4974707;28;20476;-67
2021/08/25 08:41:44;;;;;;;26.07;24.67;;;;;;;;;;4974627;28;20985;-67
2021/08/25 08:44:12;;;;;;;25.60;24.20;;;;;;;;;;4974898;28;20460;-67
2021/08/25 08:46:40;;;;;;;24.90;23.50;;;;;;;;;;4975161;28;20477;-67
2021/08/25 08:49:08;;;;;;;25.47;24.10;;;;;;;;;;4990835;28;20486;-67
2021/08/25 08:51:36;;;;;;;25.13;23.83;;;;;;;;;;4993903;28;21012;-67
2021/08/25 08:54:03;;;;;;;25.10;23.80;;;;;;;;;;4994177;28;20446;-67
2021/08/25 08:56:30;;;;;;;25.73;24.37;;;;;;;;;;4992255;28;20467;-67
2021/08/25 08:59:00;;;;;;;25.60;24.30;;;;;;;;;;4993371;28;20930;-67
2021/08/25 09:01:27;;;;;;;24.90;23.60;;;;;;;;;;4993528;28;20999;-67
2021/08/25 09:03:54;;;;;;;25.20;23.80;;;;;;;;;;4993980;28;20898;-67
2021/08/25 09:06:21;;;;;;;24.87;23.50;;;;;;;;;;4993443;28;20458;-67
2021/08/25 09:08:57;;;;;;;25.03;23.73;;;;;;;;;;4992897;28;20496;-68
2021/08/25 09:11:24;;;;;;;25.60;24.30;;;;;;;;;;4989658;28;20831;-69
2021/08/25 09:13:52;;;;;;;25.03;23.67;;;;;;;;;;4975202;28;20447;-69
2021/08/25 09:16:28;;;;;;;25.10;23.90;;;;;;;;;;4982870;28;20453;-65
2021/08/25 09:19:02;;;;;;;23.77;22.57;;;;;;;;;;4979417;28;20549;-69
2021/08/25 09:21:30;;;;;;;24.63;23.33;;;;;;;;;;4992925;28;20494;-67
2021/08/25 09:23:57;;;;;;;24.50;23.10;;;;;;;;;;4993001;28;20972;-67
2021/08/25 09:26:24;;;;;;;24.20;23.00;;;;;;;;;;4992662;28;20466;-67
2021/08/25 09:28:52;;;;;;;24.27;23.07;;;;;;;;;;4992910;28;20486;-67
2021/08/25 09:31:19;;;;;;;24.57;23.27;;;;;;;;;;4990914;28;20514;-66
2021/08/25 09:33:50;;;;;;;24.97;23.67;;;;;;;;;;4992735;28;20483;-67
2021/08/25 09:36:18;;;;;;;24.00;22.80;;;;;;;;;;4990925;28;20462;-67
2021/08/25 09:38:52;;;;;;;23.73;22.43;;;;;;;;;;4993004;28;20942;-65
2021/08/25 09:41:20;;;;;;;24.50;23.20;;;;;;;;;;4991264;28;20496;-68
2021/08/25 09:43:48;;;;;;;24.00;22.70;;;;;;;;;;4993117;28;20457;-66
2021/08/25 09:46:17;;;;;;;23.53;22.33;;;;;;;;;;4990951;28;20471;-69
2021/08/25 09:48:46;;;;;;;23.20;22.10;;;;;;;;;;4988080;28;20589;-69
2021/08/25 09:51:16;;;;;;;22.70;21.50;;;;;;;;;;4995968;28;20565;-69
2021/08/25 09:53:45;;;;;;;24.03;22.73;;;;;;;;;;4997245;28;20454;-69
2021/08/25 09:56:25;;;;;;;25.20;23.80;;;;;;;;;;4997103;28;20450;-67
2021/08/25 09:58:53;;;;;;;21.17;20.17;;;;;;;;;;4994193;28;20609;-68
2021/08/25 10:01:20;;;;;;;21.50;20.40;;;;;;;;;;4995685;28;20486;-66
2021/08/25 10:03:48;;;;;;;21.20;20.20;;;;;;;;;;4995440;28;20466;-67
2021/08/25 10:06:17;;;;;;;21.77;20.67;;;;;;;;;;4996093;28;20503;-66
2021/08/25 10:08:44;;;;;;;21.90;20.83;;;;;;;;;;4992355;28;20558;-67
2021/08/25 10:11:12;;;;;;;22.77;21.37;;;;;;;;;;4991094;28;20490;-67
2021/08/25 10:13:40;;;;;;;21.33;20.23;;;;;;;;;;4996273;28;20450;-68
2021/08/25 10:16:11;;;;;;;21.10;20.00;;;;;;;;;;4994772;28;20564;-67
2021/08/25 10:18:39;;;;;;;21.20;19.97;;;;;;;;;;4992281;28;20825;-66
2021/08/25 10:21:21;;;;;;;21.43;20.33;;;;;;;;;;4987276;28;20486;-66
2021/08/25 10:24:04;;;;;;;21.67;20.37;;;;;;;;;;4993989;28;20492;-66
2021/08/25 10:26:31;;;;;;;21.93;20.83;;;;;;;;;;4992077;28;21373;-66
2021/08/25 10:29:02;;;;;;;21.87;20.67;;;;;;;;;;4994464;28;20982;-67
2021/08/25 10:31:44;;;;;;;21.90;20.73;;;;;;;;;;4994546;28;20547;-69
2021/08/25 10:34:15;;;;;;;20.67;19.67;;;;;;;;;;4990284;28;20834;-66
2021/08/25 10:36:42;;;;;;;21.00;20.00;;;;;;;;;;4996987;28;20446;-66
2021/08/25 10:39:24;;;;;;;21.77;20.60;;;;;;;;;;4995203;28;20457;-68
2021/08/25 10:41:53;;;;;;;21.50;20.40;;;;;;;;;;4991218;28;20466;-68
2021/08/25 10:44:35;;;;;;;21.30;20.27;;;;;;;;;;4986191;28;20454;-67
2021/08/25 10:47:03;;;;;;;21.53;20.43;;;;;;;;;;4992924;28;20472;-69
2021/08/25 10:49:31;;;;;;;21.33;20.23;;;;;;;;;;4993947;28;20474;-67
2021/08/25 10:52:06;;;;;;;20.77;19.63;;;;;;;;;;4995095;28;20524;-67
2021/08/25 10:54:33;;;;;;;21.90;20.80;;;;;;;;;;4983709;28;20454;-67
2021/08/25 10:57:09;;;;;;;21.50;20.13;;;;;;;;;;4994791;28;20525;-67
2021/08/25 10:59:36;;;;;;;20.73;19.50;;;;;;;;;;4993069;28;21173;-68
2021/08/25 11:02:03;;;;;;;20.73;19.63;;;;;;;;;;4994137;28;20813;-67
2021/08/25 11:04:31;;;;;;;22.77;21.43;;;;;;;;;;4993529;28;20465;-68
2021/08/25 11:07:01;;;;;;;25.63;24.00;;;;;;;;;;4994910;28;20474;-68
2021/08/25 11:09:32;;;;;;;26.13;24.10;;;;;;;;;;4994885;28;20486;-67
2021/08/25 11:12:04;;;;;;;28.97;26.93;;;;;;;;;;5030472;22;20508;-64
2021/08/25 11:14:37;;;;;;;34.80;32.07;;;;;;;;;;5013948;28;20981;-69
2021/08/25 11:17:05;;;;;;;37.87;34.87;;;;;;;;;;5029415;28;20474;-65
2021/08/25 11:19:33;;;;;;;38.63;35.50;;;;;;;;;;5012096;28;20469;-64
2021/08/25 11:22:01;;;;;;;41.17;37.73;;;;;;;;;;4979713;28;20562;-64
2021/08/25 11:24:32;;;;;;;39.27;35.93;;;;;;;;;;4993208;28;20468;-65
2021/08/25 11:26:59;;;;;;;45.30;41.30;;;;;;;;;;4986193;28;20977;-64
2021/08/25 11:29:26;;;;;;;26.10;24.40;;;;;;;;;;4990268;28;20482;-65
2021/08/25 11:31:55;;;;;;;36.17;33.23;;;;;;;;;;4993204;28;20478;-65
2021/08/25 11:34:23;;;;;;;42.10;38.53;;;;;;;;;;5008177;28;20468;-65
2021/08/25 11:36:54;;;;;;;38.17;35.20;;;;;;;;;;5013769;28;20548;-65
2021/08/25 11:39:21;;;;;;;30.93;28.83;;;;;;;;;;4995673;28;20532;-65
2021/08/25 11:41:50;;;;;;;36.97;34.17;;;;;;;;;;4991540;28;20850;-65
2021/08/25 11:44:33;;;;;;;39.13;35.90;;;;;;;;;;4984751;28;20464;-65
2021/08/25 11:47:10;;;;;;;33.37;30.87;;;;;;;;;;4989820;28;20455;-64
2021/08/25 11:49:38;;;;;;;42.17;38.67;;;;;;;;;;4993808;28;20855;-65
2021/08/25 11:52:05;;;;;;;38.03;34.63;;;;;;;;;;4984304;28;20477;-65
2021/08/25 11:54:32;;;;;;;32.90;30.50;;;;;;;;;;4986597;28;20467;-65
2021/08/25 11:56:59;;;;;;;26.97;25.07;;;;;;;;;;4992569;28;20463;-66
2021/08/25 11:59:27;;;;;;;27.90;25.90;;;;;;;;;;4992522;28;20447;-65
2021/08/25 12:02:03;;;;;;;33.53;31.37;;;;;;;;;;4992722;28;20482;-64
2021/08/25 12:04:31;;;;;;;26.33;24.77;;;;;;;;;;4999603;28;21000;-65
2021/08/25 12:06:58;;;;;;;27.10;25.40;;;;;;;;;;4994482;28;20505;-65
2021/08/25 12:09:32;;;;;;;27.23;25.63;;;;;;;;;;4993317;28;21013;-66
2021/08/25 12:11:59;;;;;;;27.17;25.30;;;;;;;;;;4980073;28;20502;-66
2021/08/25 12:14:26;;;;;;;27.47;25.60;;;;;;;;;;4993286;28;20455;-65
2021/08/25 12:17:04;;;;;;;27.37;25.67;;;;;;;;;;4993389;28;20446;-66
2021/08/25 12:19:34;;;;;;;26.90;25.20;;;;;;;;;;4993063;28;20442;-65
2021/08/25 12:22:22;;;;;;;26.33;24.83;;;;;;;;;;4993144;28;20916;-65
2021/08/25 12:24:49;;;;;;;26.60;25.10;;;;;;;;;;4992287;28;20458;-65
2021/08/25 12:27:16;;;;;;;27.50;25.90;;;;;;;;;;4988650;28;20965;-66
2021/08/25 12:29:44;;;;;;;26.80;25.10;;;;;;;;;;4993646;28;20492;-66
2021/08/25 12:32:11;;;;;;;24.97;23.40;;;;;;;;;;4991700;28;20486;-65
2021/08/25 12:34:53;;;;;;;22.17;20.87;;;;;;;;;;4987949;28;20463;-65
2021/08/25 12:37:22;;;;;;;26.67;25.07;;;;;;;;;;4982637;28;20742;-66
2021/08/25 12:39:49;;;;;;;27.30;25.70;;;;;;;;;;4991488;28;20470;-65
2021/08/25 12:42:16;;;;;;;26.30;24.90;;;;;;;;;;4992627;28;20977;-65
2021/08/25 12:44:43;;;;;;;27.03;25.63;;;;;;;;;;4979143;28;20458;-65
2021/08/25 12:47:12;;;;;;;27.70;26.10;;;;;;;;;;4992660;28;20450;-65
2021/08/25 12:49:39;;;;;;;26.20;24.70;;;;;;;;;;4977881;28;20483;-65
2021/08/25 12:52:06;;;;;;;26.87;25.37;;;;;;;;;;4989202;28;20501;-66
2021/08/25 12:54:35;;;;;;;27.30;25.80;;;;;;;;;;4978866;28;20463;-65
2021/08/25 12:57:02;;;;;;;27.40;25.90;;;;;;;;;;4972775;28;20473;-65
2021/08/25 12:59:29;;;;;;;27.20;25.80;;;;;;;;;;4984642;28;21018;-64
2021/08/25 13:01:56;;;;;;;27.80;26.40;;;;;;;;;;4992571;28;20480;-65
2021/08/25 13:04:23;;;;;;;27.20;25.80;;;;;;;;;;4991504;28;20462;-65
2021/08/25 13:06:50;;;;;;;28.07;26.47;;;;;;;;;;4990743;28;20446;-66
2021/08/25 13:09:17;;;;;;;27.80;26.20;;;;;;;;;;4988932;28;20825;-65
2021/08/25 13:11:46;;;;;;;27.33;25.83;;;;;;;;;;4990166;28;20482;-65
2021/08/25 13:14:13;;;;;;;27.10;25.70;;;;;;;;;;4977242;28;20454;-66
2021/08/25 13:16:40;;;;;;;26.83;25.33;;;;;;;;;;4992607;28;20450;-66
2021/08/25 13:19:07;;;;;;;25.50;24.10;;;;;;;;;;4973855;28;20460;-66
2021/08/25 13:21:34;;;;;;;27.63;26.13;;;;;;;;;;4972731;28;20478;-66
2021/08/25 13:24:01;;;;;;;27.50;25.90;;;;;;;;;;4989538;28;20561;-66
2021/08/25 13:26:29;;;;;;;27.30;25.80;;;;;;;;;;4976144;28;20452;-66
2021/08/25 13:28:57;;;;;;;27.77;26.27;;;;;;;;;;4973765;28;20448;-66
2021/08/25 13:31:24;;;;;;;27.90;26.40;;;;;;;;;;4979083;28;20494;-65
2021/08/25 13:33:51;;;;;;;27.13;25.63;;;;;;;;;;4987963;28;20455;-66
2021/08/25 13:36:18;;;;;;;27.80;26.27;;;;;;;;;;4973073;28;20455;-65
2021/08/25 13:38:45;;;;;;;25.93;24.53;;;;;;;;;;4987938;28;20455;-66
2021/08/25 13:41:12;;;;;;;28.10;26.60;;;;;;;;;;4979420;28;20570;-65
2021/08/25 13:43:40;;;;;;;26.93;25.53;;;;;;;;;;4973020;28;20454;-66
2021/08/25 13:46:08;;;;;;;27.17;25.67;;;;;;;;;;4983946;28;20458;-65
2021/08/25 13:48:35;;;;;;;25.80;24.40;;;;;;;;;;4992041;28;20469;-65
2021/08/25 13:51:02;;;;;;;27.90;26.40;;;;;;;;;;4980967;28;20491;-63
2021/08/25 13:53:29;;;;;;;28.67;27.07;;;;;;;;;;4986789;28;21036;-65
2021/08/25 13:55:57;;;;;;;27.90;26.37;;;;;;;;;;4990919;28;20450;-65
2021/08/25 13:58:24;;;;;;;28.10;26.50;;;;;;;;;;4991930;28;20957;-65
2021/08/25 14:00:51;;;;;;;24.80;23.30;;;;;;;;;;4990998;28;20481;-64
2021/08/25 14:03:19;;;;;;;24.33;23.00;;;;;;;;;;4992347;28;20455;-65
2021/08/25 14:05:46;;;;;;;24.40;23.10;;;;;;;;;;4986616;28;20485;-65
2021/08/25 14:08:14;;;;;;;24.27;22.87;;;;;;;;;;4985191;28;20463;-65
2021/08/25 14:10:41;;;;;;;28.23;26.73;;;;;;;;;;4987571;28;20890;-65
2021/08/25 14:13:08;;;;;;;28.37;26.87;;;;;;;;;;4973276;28;20461;-65
2021/08/25 14:15:37;;;;;;;30.57;28.87;;;;;;;;;;4973428;28;20997;-63
2021/08/25 14:18:04;;;;;;;31.73;30.03;;;;;;;;;;4974344;28;20490;-63
2021/08/25 14:20:33;;;;;;;30.60;29.00;;;;;;;;;;4992182;28;20472;-64